This is the latest recevied weather packets stored in our database for station/object N1UNH. If no packets are shown the sender has not sent any weather packets the latest 1 day(s).
| Time | Temp. | Humidity | Pressure | Rain* | Wind** | Luminosity | Snow |
|---|---|---|---|---|---|---|---|
| 1778001466 | 28.33° C | 30% | 1011.1 hPa | 0 mm | 1.34 m/s, 205° | 935 W/m² | - |
| 1778001163 | 28.33° C | 30% | 1011.2 hPa | 0 mm | 0.45 m/s, 205° | 923 W/m² | - |
| 1778000860 | 27.78° C | 31% | 1011.3 hPa | 0 mm | 1.79 m/s, 204° | 933 W/m² | - |
| 1778000558 | 27.22° C | 34% | 1011.1 hPa | 0 mm | 0.89 m/s, 205° | 856 W/m² | - |
| 1778000258 | 27.22° C | 34% | 1011.5 hPa | 0 mm | 0.45 m/s, 204° | 572 W/m² | - |
| 1777999954 | 27.78° C | 32% | 1011.5 hPa | 0 mm | 0.89 m/s, 204° | 456 W/m² | - |
| 1777999650 | 27.78° C | 32% | 1011.6 hPa | 0 mm | 0.89 m/s, 205° | 891 W/m² | - |
| 1777999347 | 27.22° C | 35% | 1011.5 hPa | 0 mm | 0.45 m/s, 204° | 880 W/m² | - |
| 1777999045 | 26.67° C | 34% | 1011.7 hPa | 0 mm | 0.89 m/s, 204° | 433 W/m² | - |
| 1777998743 | 26.67° C | 35% | 1011.7 hPa | 0 mm | 0.45 m/s, 204° | 911 W/m² | - |
| 1777998440 | 27.22° C | 34% | 1012 hPa | 0 mm | 0.45 m/s, 204° | 424 W/m² | - |
| 1777998137 | 26.67° C | 33% | 1012.2 hPa | 0 mm | 0.89 m/s, 204° | 853 W/m² | - |
| 1777997834 | 26.11° C | 35% | 1012.2 hPa | 0 mm | 1.34 m/s, 205° | 848 W/m² | - |
| 1777997532 | 26.11° C | 34% | 1012.1 hPa | 0 mm | 0.89 m/s, 205° | 859 W/m² | - |
| 1777997229 | 26.11° C | 34% | 1012.8 hPa | 0 mm | 1.34 m/s, 205° | 821 W/m² | - |
| 1777996927 | 26.11° C | 35% | 1012.6 hPa | 0 mm | 1.79 m/s, 205° | 874 W/m² | - |
| 1777996623 | 26.11° C | 35% | 1012.8 hPa | 0 mm | 1.79 m/s, 205° | 904 W/m² | - |
| 1777996319 | 26.11° C | 35% | 1012.9 hPa | 0 mm | 1.34 m/s, 205° | 842 W/m² | - |
| 1777996015 | 26.11° C | 35% | 1012.8 hPa | 0 mm | 0.45 m/s, 205° | 866 W/m² | - |
| 1777995712 | 26.11° C | 36% | 1012.7 hPa | 0 mm | 1.34 m/s, 205° | 840 W/m² | - |
| 1777995409 | 26.11° C | 35% | 1013.1 hPa | 0 mm | 1.79 m/s, 204° | 819 W/m² | - |
| 1777995106 | 25.56° C | 36% | 1012.8 hPa | 0 mm | 0.45 m/s, 205° | 802 W/m² | - |
| 1777994802 | 25° C | 36% | 1013 hPa | 0 mm | 2.24 m/s, 204° | 750 W/m² | - |
| 1777994498 | 25° C | 38% | 1013.1 hPa | 0 mm | 0.45 m/s, 204° | 415 W/m² | - |
| 1777994194 | 25° C | 37% | 1013.1 hPa | 0 mm | 0.45 m/s, 204° | 332 W/m² | - |
* Rain latest hour (hover to see other rain measurements)
** Current wind speed in m/s (hover to see current wind gust speed)